sensor_id;sensor_type;location;lat;lon;timestamp;temperature;humidity
19646;DHT22;9971;52.446;13.452;2024-02-28T00:01:00;17.10;99.90
19646;DHT22;9971;52.446;13.452;2024-02-28T00:06:03;17.30;99.90
19646;DHT22;9971;52.446;13.452;2024-02-28T00:11:05;17.50;99.90
19646;DHT22;9971;52.446;13.452;2024-02-28T00:16:08;17.70;99.90
19646;DHT22;9971;52.446;13.452;2024-02-28T00:21:10;17.90;99.90
19646;DHT22;9971;52.446;13.452;2024-02-28T00:26:13;18.00;99.10
19646;DHT22;9971;52.446;13.452;2024-02-28T00:31:15;18.10;97.30
19646;DHT22;9971;52.446;13.452;2024-02-28T00:36:18;18.30;97.00
19646;DHT22;9971;52.446;13.452;2024-02-28T00:41:21;18.40;96.10
19646;DHT22;9971;52.446;13.452;2024-02-28T00:46:23;18.50;95.60
19646;DHT22;9971;52.446;13.452;2024-02-28T00:51:26;18.60;94.90
19646;DHT22;9971;52.446;13.452;2024-02-28T00:56:28;18.70;93.90
19646;DHT22;9971;52.446;13.452;2024-02-28T01:01:31;18.70;93.20
19646;DHT22;9971;52.446;13.452;2024-02-28T01:06:33;18.80;92.20
19646;DHT22;9971;52.446;13.452;2024-02-28T01:11:36;18.80;91.90
19646;DHT22;9971;52.446;13.452;2024-02-28T01:16:38;18.90;92.20
19646;DHT22;9971;52.446;13.452;2024-02-28T01:21:40;19.00;91.40
19646;DHT22;9971;52.446;13.452;2024-02-28T01:26:43;19.00;90.80
19646;DHT22;9971;52.446;13.452;2024-02-28T01:31:45;19.10;90.30
19646;DHT22;9971;52.446;13.452;2024-02-28T01:36:47;19.20;90.10
19646;DHT22;9971;52.446;13.452;2024-02-28T01:41:53;19.20;90.70
19646;DHT22;9971;52.446;13.452;2024-02-28T01:46:55;19.20;90.10
19646;DHT22;9971;52.446;13.452;2024-02-28T01:51:57;19.30;90.00
19646;DHT22;9971;52.446;13.452;2024-02-28T01:56:59;19.40;88.70
19646;DHT22;9971;52.446;13.452;2024-02-28T02:02:01;19.40;88.10
19646;DHT22;9971;52.446;13.452;2024-02-28T02:07:04;19.40;87.70
19646;DHT22;9971;52.446;13.452;2024-02-28T02:12:06;19.50;86.60
19646;DHT22;9971;52.446;13.452;2024-02-28T02:17:08;19.60;86.70
19646;DHT22;9971;52.446;13.452;2024-02-28T02:22:12;19.60;85.90
19646;DHT22;9971;52.446;13.452;2024-02-28T02:27:13;19.60;85.30
19646;DHT22;9971;52.446;13.452;2024-02-28T02:32:15;19.70;84.80
19646;DHT22;9971;52.446;13.452;2024-02-28T02:37:19;19.70;84.00
19646;DHT22;9971;52.446;13.452;2024-02-28T02:42:21;19.70;83.60
19646;DHT22;9971;52.446;13.452;2024-02-28T02:47:24;19.80;82.80
19646;DHT22;9971;52.446;13.452;2024-02-28T02:52:26;19.80;82.00
19646;DHT22;9971;52.446;13.452;2024-02-28T02:57:29;19.80;80.70
19646;DHT22;9971;52.446;13.452;2024-02-28T03:02:32;19.80;82.50
19646;DHT22;9971;52.446;13.452;2024-02-28T03:07:34;19.80;81.50
19646;DHT22;9971;52.446;13.452;2024-02-28T03:12:36;19.80;81.00
19646;DHT22;9971;52.446;13.452;2024-02-28T03:17:39;19.80;80.80
19646;DHT22;9971;52.446;13.452;2024-02-28T03:22:41;19.80;80.40
19646;DHT22;9971;52.446;13.452;2024-02-28T03:27:44;19.70;79.60
19646;DHT22;9971;52.446;13.452;2024-02-28T03:32:46;19.70;78.50
19646;DHT22;9971;52.446;13.452;2024-02-28T03:37:49;19.60;77.40
19646;DHT22;9971;52.446;13.452;2024-02-28T03:42:51;19.60;76.40
19646;DHT22;9971;52.446;13.452;2024-02-28T03:47:54;19.50;77.40
19646;DHT22;9971;52.446;13.452;2024-02-28T03:52:56;19.40;77.10
19646;DHT22;9971;52.446;13.452;2024-02-28T03:57:59;19.40;77.50
19646;DHT22;9971;52.446;13.452;2024-02-28T04:03:01;19.40;77.70
19646;DHT22;9971;52.446;13.452;2024-02-28T04:08:04;19.40;77.10
19646;DHT22;9971;52.446;13.452;2024-02-28T04:13:06;19.50;77.70
19646;DHT22;9971;52.446;13.452;2024-02-28T04:18:08;19.50;78.60
19646;DHT22;9971;52.446;13.452;2024-02-28T04:23:10;19.60;79.60
19646;DHT22;9971;52.446;13.452;2024-02-28T04:28:13;19.60;80.50
19646;DHT22;9971;52.446;13.452;2024-02-28T04:33:16;19.70;80.30
19646;DHT22;9971;52.446;13.452;2024-02-28T04:38:18;19.70;77.80
19646;DHT22;9971;52.446;13.452;2024-02-28T04:43:21;19.80;78.70
19646;DHT22;9971;52.446;13.452;2024-02-28T04:48:24;19.80;76.60
19646;DHT22;9971;52.446;13.452;2024-02-28T04:53:26;19.80;76.50
19646;DHT22;9971;52.446;13.452;2024-02-28T04:58:29;19.90;77.00
19646;DHT22;9971;52.446;13.452;2024-02-28T05:03:31;19.90;78.10
19646;DHT22;9971;52.446;13.452;2024-02-28T05:08:36;19.90;78.30
19646;DHT22;9971;52.446;13.452;2024-02-28T05:13:37;19.90;77.50
19646;DHT22;9971;52.446;13.452;2024-02-28T05:18:39;19.90;77.10
19646;DHT22;9971;52.446;13.452;2024-02-28T05:23:42;20.00;76.00
19646;DHT22;9971;52.446;13.452;2024-02-28T05:28:45;20.00;76.30
19646;DHT22;9971;52.446;13.452;2024-02-28T05:33:47;20.00;74.40
19646;DHT22;9971;52.446;13.452;2024-02-28T05:38:49;20.00;74.40
19646;DHT22;9971;52.446;13.452;2024-02-28T05:43:51;20.10;73.80
19646;DHT22;9971;52.446;13.452;2024-02-28T05:48:54;20.10;71.50
19646;DHT22;9971;52.446;13.452;2024-02-28T05:53:56;20.00;71.60
19646;DHT22;9971;52.446;13.452;2024-02-28T05:58:59;20.00;71.70
19646;DHT22;9971;52.446;13.452;2024-02-28T06:04:02;20.10;71.50
19646;DHT22;9971;52.446;13.452;2024-02-28T06:09:03;20.10;71.00
19646;DHT22;9971;52.446;13.452;2024-02-28T06:14:06;20.10;70.80
19646;DHT22;9971;52.446;13.452;2024-02-28T06:19:08;20.20;70.30
19646;DHT22;9971;52.446;13.452;2024-02-28T06:24:12;20.20;69.30
19646;DHT22;9971;52.446;13.452;2024-02-28T06:29:14;20.20;69.50
19646;DHT22;9971;52.446;13.452;2024-02-28T06:34:17;20.20;69.50
19646;DHT22;9971;52.446;13.452;2024-02-28T06:39:19;20.20;68.80
19646;DHT22;9971;52.446;13.452;2024-02-28T06:44:21;20.20;69.80
19646;DHT22;9971;52.446;13.452;2024-02-28T06:49:25;20.20;69.80
19646;DHT22;9971;52.446;13.452;2024-02-28T06:54:28;20.20;69.90
19646;DHT22;9971;52.446;13.452;2024-02-28T06:59:30;20.20;69.50
19646;DHT22;9971;52.446;13.452;2024-02-28T07:04:33;20.20;70.30
19646;DHT22;9971;52.446;13.452;2024-02-28T07:09:37;20.30;69.10
19646;DHT22;9971;52.446;13.452;2024-02-28T07:14:37;20.20;69.30
19646;DHT22;9971;52.446;13.452;2024-02-28T07:19:40;20.20;68.20
19646;DHT22;9971;52.446;13.452;2024-02-28T07:24:42;20.10;68.60
19646;DHT22;9971;52.446;13.452;2024-02-28T07:29:45;20.10;69.00
19646;DHT22;9971;52.446;13.452;2024-02-28T07:34:48;20.00;67.80
19646;DHT22;9971;52.446;13.452;2024-02-28T07:39:50;20.00;67.70
19646;DHT22;9971;52.446;13.452;2024-02-28T07:44:52;19.90;68.60
19646;DHT22;9971;52.446;13.452;2024-02-28T07:49:55;19.90;69.20
19646;DHT22;9971;52.446;13.452;2024-02-28T07:54:57;20.00;69.40
19646;DHT22;9971;52.446;13.452;2024-02-28T08:00:00;20.00;68.60
19646;DHT22;9971;52.446;13.452;2024-02-28T08:05:03;20.00;68.70
19646;DHT22;9971;52.446;13.452;2024-02-28T08:10:05;20.00;68.90
19646;DHT22;9971;52.446;13.452;2024-02-28T08:15:08;20.10;67.80
19646;DHT22;9971;52.446;13.452;2024-02-28T08:20:11;20.00;68.20
19646;DHT22;9971;52.446;13.452;2024-02-28T08:25:13;20.10;67.70
19646;DHT22;9971;52.446;13.452;2024-02-28T08:30:16;20.10;67.60
19646;DHT22;9971;52.446;13.452;2024-02-28T08:35:18;20.10;66.70
19646;DHT22;9971;52.446;13.452;2024-02-28T08:40:21;20.10;66.50
19646;DHT22;9971;52.446;13.452;2024-02-28T08:45:23;20.10;65.70
19646;DHT22;9971;52.446;13.452;2024-02-28T08:50:25;20.00;66.40
19646;DHT22;9971;52.446;13.452;2024-02-28T08:55:28;20.00;66.40
19646;DHT22;9971;52.446;13.452;2024-02-28T09:00:30;20.00;66.60
19646;DHT22;9971;52.446;13.452;2024-02-28T09:05:32;20.00;64.70
19646;DHT22;9971;52.446;13.452;2024-02-28T09:10:35;20.00;66.20
19646;DHT22;9971;52.446;13.452;2024-02-28T09:15:37;20.00;66.40
19646;DHT22;9971;52.446;13.452;2024-02-28T09:20:40;20.00;65.80
19646;DHT22;9971;52.446;13.452;2024-02-28T09:25:42;20.10;65.20
19646;DHT22;9971;52.446;13.452;2024-02-28T09:30:45;20.10;65.40
19646;DHT22;9971;52.446;13.452;2024-02-28T09:35:47;20.10;63.80
19646;DHT22;9971;52.446;13.452;2024-02-28T09:40:49;20.10;64.40
19646;DHT22;9971;52.446;13.452;2024-02-28T09:45:52;20.10;63.60
19646;DHT22;9971;52.446;13.452;2024-02-28T09:50:54;20.00;63.40
19646;DHT22;9971;52.446;13.452;2024-02-28T09:55:56;19.90;62.60
19646;DHT22;9971;52.446;13.452;2024-02-28T10:00:59;19.90;63.80
19646;DHT22;9971;52.446;13.452;2024-02-28T10:06:00;20.00;63.70
19646;DHT22;9971;52.446;13.452;2024-02-28T10:11:03;20.00;63.70
19646;DHT22;9971;52.446;13.452;2024-02-28T10:16:06;19.90;62.90
19646;DHT22;9971;52.446;13.452;2024-02-28T10:21:07;19.90;64.10
19646;DHT22;9971;52.446;13.452;2024-02-28T10:26:10;19.90;62.30
19646;DHT22;9971;52.446;13.452;2024-02-28T10:31:12;19.90;63.10
19646;DHT22;9971;52.446;13.452;2024-02-28T10:36:14;19.90;63.10
19646;DHT22;9971;52.446;13.452;2024-02-28T10:41:16;19.90;62.80
19646;DHT22;9971;52.446;13.452;2024-02-28T10:46:19;19.70;63.10
19646;DHT22;9971;52.446;13.452;2024-02-28T10:51:22;19.70;62.20
19646;DHT22;9971;52.446;13.452;2024-02-28T10:56:23;19.70;62.90
19646;DHT22;9971;52.446;13.452;2024-02-28T11:01:25;19.70;62.50
19646;DHT22;9971;52.446;13.452;2024-02-28T11:06:27;19.70;63.10
19646;DHT22;9971;52.446;13.452;2024-02-28T11:11:30;19.70;62.80
19646;DHT22;9971;52.446;13.452;2024-02-28T11:16:32;19.70;63.20
19646;DHT22;9971;52.446;13.452;2024-02-28T11:21:35;19.70;62.20
19646;DHT22;9971;52.446;13.452;2024-02-28T11:26:36;19.70;61.20
19646;DHT22;9971;52.446;13.452;2024-02-28T11:31:39;19.70;61.90
19646;DHT22;9971;52.446;13.452;2024-02-28T11:36:41;19.80;62.40
19646;DHT22;9971;52.446;13.452;2024-02-28T11:41:44;19.80;61.10
19646;DHT22;9971;52.446;13.452;2024-02-28T11:46:47;19.80;59.80
19646;DHT22;9971;52.446;13.452;2024-02-28T11:51:49;19.80;60.20
19646;DHT22;9971;52.446;13.452;2024-02-28T11:56:51;19.80;60.60
19646;DHT22;9971;52.446;13.452;2024-02-28T12:01:54;19.80;59.10
19646;DHT22;9971;52.446;13.452;2024-02-28T12:06:57;19.80;59.40
19646;DHT22;9971;52.446;13.452;2024-02-28T12:12:00;19.80;59.60
19646;DHT22;9971;52.446;13.452;2024-02-28T12:17:00;19.80;58.50
19646;DHT22;9971;52.446;13.452;2024-02-28T12:22:02;19.80;58.70
19646;DHT22;9971;52.446;13.452;2024-02-28T12:27:04;19.80;57.80
19646;DHT22;9971;52.446;13.452;2024-02-28T12:32:07;19.70;58.20
19646;DHT22;9971;52.446;13.452;2024-02-28T12:37:09;19.60;58.80
19646;DHT22;9971;52.446;13.452;2024-02-28T12:42:11;19.60;57.80
19646;DHT22;9971;52.446;13.452;2024-02-28T12:47:13;19.70;58.50
19646;DHT22;9971;52.446;13.452;2024-02-28T12:52:16;18.90;57.00
19646;DHT22;9971;52.446;13.452;2024-02-28T12:57:18;13.50;70.90
19646;DHT22;9971;52.446;13.452;2024-02-28T13:02:21;11.20;80.50
19646;DHT22;9971;52.446;13.452;2024-02-28T13:07:23;10.00;87.20
19646;DHT22;9971;52.446;13.452;2024-02-28T13:12:25;9.50;91.30
19646;DHT22;9971;52.446;13.452;2024-02-28T13:17:28;9.30;92.90
19646;DHT22;9971;52.446;13.452;2024-02-28T13:22:30;9.10;94.50
19646;DHT22;9971;52.446;13.452;2024-02-28T13:27:33;9.10;95.80
19646;DHT22;9971;52.446;13.452;2024-02-28T13:32:35;9.10;96.20
19646;DHT22;9971;52.446;13.452;2024-02-28T13:37:38;9.00;96.60
19646;DHT22;9971;52.446;13.452;2024-02-28T13:42:41;9.00;97.70
19646;DHT22;9971;52.446;13.452;2024-02-28T13:47:43;8.90;97.60
19646;DHT22;9971;52.446;13.452;2024-02-28T13:52:45;9.00;98.90
19646;DHT22;9971;52.446;13.452;2024-02-28T13:57:48;9.00;98.60
19646;DHT22;9971;52.446;13.452;2024-02-28T14:02:51;9.00;98.60
19646;DHT22;9971;52.446;13.452;2024-02-28T14:07:53;9.00;99.50
19646;DHT22;9971;52.446;13.452;2024-02-28T14:12:55;9.40;99.90
19646;DHT22;9971;52.446;13.452;2024-02-28T14:17:58;9.80;99.30
19646;DHT22;9971;52.446;13.452;2024-02-28T14:23:00;10.50;97.50
19646;DHT22;9971;52.446;13.452;2024-02-28T14:28:03;11.00;97.40
19646;DHT22;9971;52.446;13.452;2024-02-28T14:33:05;11.30;94.80
19646;DHT22;9971;52.446;13.452;2024-02-28T14:38:08;11.50;93.40
19646;DHT22;9971;52.446;13.452;2024-02-28T14:43:10;11.50;93.40
19646;DHT22;9971;52.446;13.452;2024-02-28T14:48:12;11.30;93.40
19646;DHT22;9971;52.446;13.452;2024-02-28T14:53:15;11.30;93.20
19646;DHT22;9971;52.446;13.452;2024-02-28T14:58:17;11.30;93.20
19646;DHT22;9971;52.446;13.452;2024-02-28T15:03:19;11.50;92.80
19646;DHT22;9971;52.446;13.452;2024-02-28T15:08:22;11.50;93.10
19646;DHT22;9971;52.446;13.452;2024-02-28T15:13:24;11.10;93.70
19646;DHT22;9971;52.446;13.452;2024-02-28T15:18:26;11.00;93.90
19646;DHT22;9971;52.446;13.452;2024-02-28T15:23:29;11.10;93.60
19646;DHT22;9971;52.446;13.452;2024-02-28T15:28:31;11.10;93.70
19646;DHT22;9971;52.446;13.452;2024-02-28T15:33:34;11.10;93.60
19646;DHT22;9971;52.446;13.452;2024-02-28T15:38:36;10.90;94.00
19646;DHT22;9971;52.446;13.452;2024-02-28T15:43:38;10.80;94.00
19646;DHT22;9971;52.446;13.452;2024-02-28T15:48:42;10.80;94.20
19646;DHT22;9971;52.446;13.452;2024-02-28T15:53:45;10.70;93.90
19646;DHT22;9971;52.446;13.452;2024-02-28T15:58:47;10.50;94.70
19646;DHT22;9971;52.446;13.452;2024-02-28T16:03:49;10.30;94.70
19646;DHT22;9971;52.446;13.452;2024-02-28T16:08:52;10.00;95.80
19646;DHT22;9971;52.446;13.452;2024-02-28T16:13:55;9.70;96.20
19646;DHT22;9971;52.446;13.452;2024-02-28T16:18:57;9.60;96.40
19646;DHT22;9971;52.446;13.452;2024-02-28T16:23:59;9.40;97.40
19646;DHT22;9971;52.446;13.452;2024-02-28T16:29:03;9.30;97.70
19646;DHT22;9971;52.446;13.452;2024-02-28T16:34:07;9.10;98.70
19646;DHT22;9971;52.446;13.452;2024-02-28T16:39:10;9.00;99.90
19646;DHT22;9971;52.446;13.452;2024-02-28T16:44:16;8.80;99.90
19646;DHT22;9971;52.446;13.452;2024-02-28T16:49:18;8.60;99.90
19646;DHT22;9971;52.446;13.452;2024-02-28T16:54:21;8.50;99.90
19646;DHT22;9971;52.446;13.452;2024-02-28T16:59:23;8.30;99.90
19646;DHT22;9971;52.446;13.452;2024-02-28T17:04:26;8.10;99.90
19646;DHT22;9971;52.446;13.452;2024-02-28T17:09:28;8.00;99.90
19646;DHT22;9971;52.446;13.452;2024-02-28T17:14:30;7.80;99.90
19646;DHT22;9971;52.446;13.452;2024-02-28T17:19:33;7.70;99.90
19646;DHT22;9971;52.446;13.452;2024-02-28T17:24:35;7.50;99.90
19646;DHT22;9971;52.446;13.452;2024-02-28T17:29:38;7.50;99.90
19646;DHT22;9971;52.446;13.452;2024-02-28T17:34:40;7.30;99.90
19646;DHT22;9971;52.446;13.452;2024-02-28T17:39:42;7.40;99.90
19646;DHT22;9971;52.446;13.452;2024-02-28T17:44:45;8.20;99.90
19646;DHT22;9971;52.446;13.452;2024-02-28T17:49:47;9.00;99.90
19646;DHT22;9971;52.446;13.452;2024-02-28T17:54:50;9.80;99.90
19646;DHT22;9971;52.446;13.452;2024-02-28T17:59:52;10.60;99.90
19646;DHT22;9971;52.446;13.452;2024-02-28T18:04:55;11.30;99.90
19646;DHT22;9971;52.446;13.452;2024-02-28T18:09:57;11.90;99.90
19646;DHT22;9971;52.446;13.452;2024-02-28T18:15:00;12.50;99.90
19646;DHT22;9971;52.446;13.452;2024-02-28T18:20:02;13.00;99.90
19646;DHT22;9971;52.446;13.452;2024-02-28T18:25:05;13.50;99.90
19646;DHT22;9971;52.446;13.452;2024-02-28T18:30:07;13.90;99.90
19646;DHT22;9971;52.446;13.452;2024-02-28T18:35:10;14.30;99.90
19646;DHT22;9971;52.446;13.452;2024-02-28T18:40:12;14.70;99.90
19646;DHT22;9971;52.446;13.452;2024-02-28T18:45:15;15.00;99.90
19646;DHT22;9971;52.446;13.452;2024-02-28T18:50:17;15.30;99.90
19646;DHT22;9971;52.446;13.452;2024-02-28T18:55:19;15.70;99.90
19646;DHT22;9971;52.446;13.452;2024-02-28T19:00:21;16.00;99.90
19646;DHT22;9971;52.446;13.452;2024-02-28T19:05:23;16.20;99.90
19646;DHT22;9971;52.446;13.452;2024-02-28T19:10:26;16.50;99.90
19646;DHT22;9971;52.446;13.452;2024-02-28T19:15:28;16.70;99.90
19646;DHT22;9971;52.446;13.452;2024-02-28T19:20:31;16.90;99.90
19646;DHT22;9971;52.446;13.452;2024-02-28T19:25:33;17.10;99.90
19646;DHT22;9971;52.446;13.452;2024-02-28T19:30:36;17.30;99.90
19646;DHT22;9971;52.446;13.452;2024-02-28T19:35:38;17.50;99.90
19646;DHT22;9971;52.446;13.452;2024-02-28T19:40:41;17.70;99.90
19646;DHT22;9971;52.446;13.452;2024-02-28T19:45:43;17.80;99.90
19646;DHT22;9971;52.446;13.452;2024-02-28T19:50:46;18.00;99.90
19646;DHT22;9971;52.446;13.452;2024-02-28T19:55:48;18.10;99.90
19646;DHT22;9971;52.446;13.452;2024-02-28T20:00:50;18.20;99.90
19646;DHT22;9971;52.446;13.452;2024-02-28T20:05:53;18.40;99.90
19646;DHT22;9971;52.446;13.452;2024-02-28T20:10:55;18.50;99.90
19646;DHT22;9971;52.446;13.452;2024-02-28T20:15:58;18.60;99.90
19646;DHT22;9971;52.446;13.452;2024-02-28T20:21:00;18.80;99.90
19646;DHT22;9971;52.446;13.452;2024-02-28T20:26:03;18.90;99.90
19646;DHT22;9971;52.446;13.452;2024-02-28T20:31:06;19.00;99.90
19646;DHT22;9971;52.446;13.452;2024-02-28T20:36:08;19.10;99.90
19646;DHT22;9971;52.446;13.452;2024-02-28T20:41:11;19.20;99.90
19646;DHT22;9971;52.446;13.452;2024-02-28T20:46:13;19.30;99.90
19646;DHT22;9971;52.446;13.452;2024-02-28T20:51:15;19.40;99.90
19646;DHT22;9971;52.446;13.452;2024-02-28T20:56:17;19.40;99.90
19646;DHT22;9971;52.446;13.452;2024-02-28T21:01:20;19.50;99.90
19646;DHT22;9971;52.446;13.452;2024-02-28T21:06:22;19.60;99.90
19646;DHT22;9971;52.446;13.452;2024-02-28T21:11:24;19.70;99.90
19646;DHT22;9971;52.446;13.452;2024-02-28T21:16:26;19.70;99.90
19646;DHT22;9971;52.446;13.452;2024-02-28T21:21:29;19.80;99.90
19646;DHT22;9971;52.446;13.452;2024-02-28T21:26:31;19.80;99.90
19646;DHT22;9971;52.446;13.452;2024-02-28T21:31:34;19.90;99.90
19646;DHT22;9971;52.446;13.452;2024-02-28T21:36:36;19.90;99.90
19646;DHT22;9971;52.446;13.452;2024-02-28T21:41:38;20.00;99.90
19646;DHT22;9971;52.446;13.452;2024-02-28T21:46:41;20.00;99.90
19646;DHT22;9971;52.446;13.452;2024-02-28T21:51:43;20.00;99.90
19646;DHT22;9971;52.446;13.452;2024-02-28T21:56:46;20.10;99.90
19646;DHT22;9971;52.446;13.452;2024-02-28T22:01:48;20.10;99.90
19646;DHT22;9971;52.446;13.452;2024-02-28T22:06:51;20.20;99.90
19646;DHT22;9971;52.446;13.452;2024-02-28T22:11:53;20.20;99.90
19646;DHT22;9971;52.446;13.452;2024-02-28T22:16:56;20.20;99.90
19646;DHT22;9971;52.446;13.452;2024-02-28T22:21:59;20.20;99.90
19646;DHT22;9971;52.446;13.452;2024-02-28T22:27:01;20.20;99.90
19646;DHT22;9971;52.446;13.452;2024-02-28T22:32:03;20.30;99.90
19646;DHT22;9971;52.446;13.452;2024-02-28T22:37:06;20.30;99.90
19646;DHT22;9971;52.446;13.452;2024-02-28T22:42:08;20.40;99.90
19646;DHT22;9971;52.446;13.452;2024-02-28T22:47:11;20.40;99.90
19646;DHT22;9971;52.446;13.452;2024-02-28T22:52:13;20.40;99.90
19646;DHT22;9971;52.446;13.452;2024-02-28T22:57:15;20.40;99.90
19646;DHT22;9971;52.446;13.452;2024-02-28T23:02:18;20.40;99.90
19646;DHT22;9971;52.446;13.452;2024-02-28T23:07:21;20.50;99.90
19646;DHT22;9971;52.446;13.452;2024-02-28T23:12:23;20.50;99.90
19646;DHT22;9971;52.446;13.452;2024-02-28T23:17:25;20.50;99.90
19646;DHT22;9971;52.446;13.452;2024-02-28T23:22:28;20.50;99.90
19646;DHT22;9971;52.446;13.452;2024-02-28T23:27:30;20.50;99.90
19646;DHT22;9971;52.446;13.452;2024-02-28T23:32:33;20.50;99.90
19646;DHT22;9971;52.446;13.452;2024-02-28T23:37:35;20.50;99.90
19646;DHT22;9971;52.446;13.452;2024-02-28T23:42:37;20.50;99.90
19646;DHT22;9971;52.446;13.452;2024-02-28T23:47:39;20.50;99.90
19646;DHT22;9971;52.446;13.452;2024-02-28T23:52:41;20.50;99.90
19646;DHT22;9971;52.446;13.452;2024-02-28T23:57:43;20.50;99.90
